Latest Weather Observations for Orange Airport

IDN60801

Issued at 12:03 pm EST Wednesday 27 May 2015 (issued every 30 minutes, with the page automatically refreshed every 10 minutes)

About weather observations | Map of weather stations | Latest weather observations for NSW | Other Formats
Station Details ID: 063303 Name: ORANGE AIRPORT AWS Lat: -33.38 Lon: 149.13 Height: 944.65 m
Data from the previous 72 hours. | See also: Recent months at Orange Airport
Date/Time
EST
Temp
°C
App
Temp
°C
Dew
Point
Rel
Hum
%
Delta-T
°C
Wind Press
QNH
hPa
Press
MSL
hPa
Rain
since 9 am
mm
Dir
 
Spd
km/h
Gust
km/h
Spd
kts
Gust
kts
27/12:00pm 12.3 9.5 7.0 70 2.7 SW 11 15 6 8 1025.4 1025.3 0.0
27/11:30am 12.3 9.1 6.8 69 2.8 WSW 13 17 7 9 1025.9 1025.9 0.0
27/11:00am 12.1 8.8 6.6 69 2.7 W 13 17 7 9 1026.1 1026.0 0.0
27/10:30am 11.8 8.2 6.7 71 2.6 SSW 15 20 8 11 1026.3 1026.2 0.0
27/10:00am 12.3 9.0 6.6 68 2.8 SSW 13 17 7 9 1026.3 1026.2 0.0
27/09:30am 11.3 8.0 6.2 71 2.5 SW 13 17 7 9 1026.2 1026.1 0.0
27/09:00am 10.1 9.6 7.7 85 1.2 CALM 0 0 0 0 1026.3 1026.2 0.0
27/08:30am 7.3 5.1 6.2 93 0.5 S 7 9 4 5 1025.9 1025.9 0.0
27/08:00am 4.5 2.3 3.5 93 0.4 WSW 4 6 2 3 1025.7 1025.7 0.0
27/07:30am 4.7 2.0 3.7 93 0.4 W 7 7 4 4 1025.6 1025.6 0.0
27/07:00am 3.4 0.7 2.4 93 0.4 WNW 6 9 3 5 1025.3 1025.2 0.0
27/06:30am 2.4 0.3 1.4 93 0.4 N 2 7 1 4 1024.7 1024.7 0.0
27/06:00am 1.9 0.1 0.9 93 0.4 CALM 0 0 0 0 1025.0 1024.9 0.0
27/05:30am 2.4 0.6 1.4 93 0.4 CALM 0 0 0 0 1024.8 1024.8 0.0
27/05:00am 3.7 2.1 2.7 93 0.4 CALM 0 0 0 0 1024.8 1024.8 0.0
27/04:30am 4.8 3.4 3.8 93 0.4 CALM 0 0 0 0 1024.6 1024.6 0.0
27/04:00am 5.0 3.7 4.0 93 0.4 CALM 0 0 0 0 1025.0 1024.9 0.0
27/03:30am 4.7 3.3 3.7 93 0.4 CALM 0 0 0 0 1025.1 1025.0 0.0
27/03:00am 4.2 2.7 3.2 93 0.4 CALM 0 0 0 0 1025.4 1025.3 0.0
27/02:30am 4.4 3.0 3.4 93 0.4 CALM 0 0 0 0 1025.5 1025.4 0.0
27/02:00am 4.8 3.4 3.8 93 0.4 CALM 0 0 0 0 1025.9 1025.9 0.0
27/01:30am 5.4 3.4 4.4 93 0.5 NE 4 6 2 3 1025.9 1025.9 0.0
27/01:00am 5.4 2.5 4.4 93 0.5 NNE 9 11 5 6 1025.8 1025.8 0.0
27/12:30am 5.5 3.0 4.5 93 0.5 WNW 7 9 4 5 1026.3 1026.2 0.0
27/12:00am 5.2 3.5 4.2 93 0.4 NNE 2 9 1 5 1026.3 1026.2 0.0
 
Date/Time
EST
Temp
°C
App
Temp
°C
Dew
Point
Rel
Hum
%
Delta-T
°C
Wind Press
QNH
hPa
Press
MSL
hPa
Rain
since 9 am
mm
Dir
 
Spd
km/h
Gust
km/h
Spd
kts
Gust
kts
26/11:30pm 6.0 3.5 5.0 93 0.5 NNW 7 9 4 5 1026.4 1026.3 0.0
26/11:00pm 6.4 3.7 5.4 93 0.5 W 9 11 5 6 1026.5 1026.5 0.0
26/10:30pm 5.1 3.8 4.1 93 0.4 CALM 0 4 0 2 1026.5 1026.5 0.0
26/10:00pm 4.7 1.6 3.7 93 0.4 NW 9 9 5 5 1026.7 1026.7 0.0
26/09:30pm 4.3 2.5 3.3 93 0.4 N 2 6 1 3 1026.7 1026.7 0.0
26/09:00pm 4.7 2.6 3.7 93 0.4 WNW 4 7 2 4 1027.3 1027.2 0.0
26/08:30pm 4.7 2.9 3.5 92 0.5 WNW 2 6 1 3 1027.1 1027.1 0.0
26/08:00pm 5.8 3.3 4.8 93 0.5 W 7 9 4 5 1027.0 1027.0 0.0
26/07:30pm 6.4 3.7 5.4 93 0.5 NNE 9 13 5 7 1026.7 1026.7 0.0
26/07:00pm 6.6 4.7 4.9 89 0.8 NNE 4 9 2 5 1026.9 1026.9 0.0
26/06:30pm 6.1 4.7 3.3 82 1.2 CALM 0 0 0 0 1027.0 1027.0 0.0
26/06:00pm 6.8 4.3 3.9 82 1.3 NNW 6 9 3 5 1027.1 1027.1 0.0
26/05:30pm 7.2 5.0 3.1 75 1.8 SSW 4 7 2 4 1026.8 1026.8 0.0
26/05:00pm 8.4 5.8 3.3 70 2.3 SW 6 9 3 5 1026.7 1026.7 0.0
26/04:30pm 9.6 6.8 2.0 59 3.4 SSE 6 9 3 5 1026.5 1026.5 0.0
26/04:00pm 10.5 7.6 2.6 58 3.6 SSE 7 9 4 5 1026.4 1026.3 0.0
26/03:30pm 10.9 7.9 2.0 54 4.0 S 7 11 4 6 1026.6 1026.6 0.0
26/03:00pm 11.2 7.8 2.0 53 4.1 S 9 11 5 6 1026.8 1026.8 0.0
26/02:30pm 11.2 8.8 4.2 62 3.3 WSW 6 11 3 6 1027.0 1027.0 0.0
26/02:00pm 10.8 8.6 6.0 72 2.3 S 7 11 4 6 1027.4 1027.4 0.0
26/01:30pm 10.9 8.5 5.4 69 2.7 SSW 7 11 4 6 1027.7 1027.7 0.0
26/01:00pm 11.0 7.3 2.6 56 3.8 SW 11 13 6 7 1028.0 1028.0 0.0
26/12:30pm 11.1 9.9 4.8 65 3.0 CALM 0 4 0 2 1028.2 1028.2 0.0
26/12:00pm 10.7 8.3 4.4 65 3.0 NNW 6 7 3 4 1028.7 1028.7 0.0
26/11:30am 10.2 7.6 4.4 67 2.7 N 7 11 4 6 1029.2 1029.3 0.0
26/11:00am 10.3 9.1 4.5 67 2.7 CALM 0 0 0 0 1029.8 1029.8 0.0
26/10:30am 10.1 8.8 4.3 67 2.7 CALM 0 0 0 0 1030.0 1030.0 0.0
26/10:00am 9.0 7.2 5.2 77 1.8 N 4 7 2 4 1029.9 1029.9 0.0
26/09:30am 8.6 8.0 7.2 91 0.7 CALM 0 0 0 0 1030.0 1030.0 0.0
26/09:00am 6.5 5.5 5.5 93 0.5 CALM 0 0 0 0 1030.1 1030.2 0.2
26/08:30am 4.8 3.1 3.8 93 0.4 SSE 2 7 1 4 1029.9 1029.9 0.2
26/08:00am 1.5 -2.1 0.5 93 0.4 SE 9 11 5 6 1029.7 1029.7 0.2
26/07:30am -1.2 -4.6 -2.2 93 0.3 S 6 7 3 4 1029.6 1029.6 0.0
26/07:00am -0.8 -3.8 -1.8 93 0.3 SSW 4 6 2 3 1029.3 1029.4 0.0
26/06:30am -0.3 -3.6 -1.3 93 0.4 SSE 6 7 3 4 1029.1 1029.1 0.0
26/06:00am -0.2 -2.4 -1.2 93 0.4 CALM 0 0 0 0 1028.8 1028.8 0.0
26/05:30am 0.6 -1.4 -0.4 93 0.4 CALM 0 0 0 0 1028.7 1028.7 0.0
26/05:00am 1.0 -1.0 -0.1 92 0.4 CALM 0 0 0 0 1028.8 1028.8 0.0
26/04:30am 0.9 -1.1 -0.1 93 0.4 CALM 0 0 0 0 1029.2 1029.3 0.0
26/04:00am 0.1 -2.0 -0.9 93 0.4 CALM 0 0 0 0 1029.1 1029.1 0.0
26/03:30am -0.3 -2.8 -1.3 93 0.4 S 2 7 1 4 1029.2 1029.3 0.0
26/03:00am -0.7 -3.3 -1.7 93 0.3 SSE 2 7 1 4 1029.1 1029.1 0.0
26/02:30am -0.2 -2.4 -1.2 93 0.4 CALM 0 0 0 0 1029.6 1029.6 0.0
26/02:00am 0.3 -1.8 -0.7 93 0.4 CALM 0 0 0 0 1029.6 1029.6 0.0
26/01:30am -0.2 -2.4 -1.2 93 0.4 CALM 0 0 0 0 1029.8 1029.8 0.0
26/01:00am 0.5 -1.6 -0.5 93 0.4 CALM 0 0 0 0 1030.0 1030.0 0.0
26/12:48am 0.5 -1.6 -0.5 93 0.4 CALM 0 0 0 0 1030.1 1030.2 0.0
26/12:33am -0.3 -2.5 -1.3 93 0.4 CALM 0 2 0 1 1030.3 1030.4 0.0
26/12:30am 0.4 -1.7 -0.6 93 0.4 CALM 0 4 0 2 1030.4 1030.5 0.0
26/12:12am 0.2 -2.3 -0.8 93 0.4 WSW 2 6 1 3 1030.4 1030.5 0.0
26/12:00am 1.8 -1.2 0.8 93 0.4 W 6 7 3 4 1030.5 1030.6 0.0
 
Date/Time
EST
Temp
°C
App
Temp
°C
Dew
Point
Rel
Hum
%
Delta-T
°C
Wind Press
QNH
hPa
Press
MSL
hPa
Rain
since 9 am
mm
Dir
 
Spd
km/h
Gust
km/h
Spd
kts
Gust
kts
25/11:30pm 0.7 -2.5 -0.3 93 0.4 W 6 7 3 4 1030.5 1030.6 0.0
25/11:00pm -0.1 -2.2 -1.1 93 0.4 CALM 0 0 0 0 1030.5 1030.6 0.0
25/10:30pm 1.0 -1.0 0.0 93 0.4 CALM 0 0 0 0 1030.7 1030.7 0.0
25/10:08pm 1.0 -1.0 0.0 93 0.4 CALM 0 0 0 0 1030.9 1030.9 0.0
25/10:00pm 1.5 -0.8 0.5 93 0.4 WSW 2 7 1 4 1030.8 1030.8 0.0
25/09:55pm 1.3 -1.8 0.3 93 0.4 WSW 6 7 3 4 1030.9 1030.9 0.0
25/09:30pm 1.7 -0.9 0.7 93 0.4 WNW 4 7 2 4 1030.9 1030.9 0.0
25/09:03pm 2.0 -0.6 1.0 93 0.4 SSE 4 7 2 4 1030.8 1030.8 0.0
25/09:00pm 1.6 -1.4 0.6 93 0.4 SSE 6 7 3 4 1030.8 1030.8 0.0
25/08:50pm 2.1 -0.9 1.1 93 0.4 SSE 6 7 3 4 1030.8 1030.8 0.0
25/08:30pm 1.9 0.1 0.9 93 0.4 CALM 0 9 0 5 1030.7 1030.7 0.0
25/08:26pm 1.6 -0.3 0.6 93 0.4 CALM 0 0 0 0 1030.7 1030.7 0.0
25/08:11pm 2.9 1.2 1.9 93 0.4 CALM 0 0 0 0 1030.9 1030.9 0.0
25/08:00pm 3.2 1.6 2.2 93 0.4 CALM 0 0 0 0 1030.9 1030.9 0.0
25/07:30pm 2.9 1.2 1.9 93 0.4 CALM 0 0 0 0 1030.9 1030.9 0.0
25/07:28pm 3.1 1.4 2.1 93 0.4 CALM 0 0 0 0 1031.0 1031.0 0.0
25/07:00pm 3.9 2.0 2.9 93 0.4 SW 2 6 1 3 1030.7 1030.7 0.0
25/06:30pm 5.2 2.8 4.2 93 0.5 W 6 7 3 4 1030.5 1030.6 0.0
25/06:00pm 5.5 3.1 4.5 93 0.5 W 6 7 3 4 1030.2 1030.3 0.0
25/05:30pm 6.9 4.7 5.5 91 0.7 SSW 6 7 3 4 1030.0 1030.0 0.0
25/05:00pm 7.8 5.1 5.8 87 0.9 SSE 9 13 5 7 1029.3 1029.4 0.0
25/04:30pm 9.3 6.5 6.9 85 1.2 S 11 15 6 8 1029.8 1029.8 0.0
25/04:00pm 10.4 7.6 6.9 79 1.7 SSW 11 13 6 7 1030.1 1030.2 0.0
25/03:30pm 11.7 8.1 5.1 64 3.2 SW 13 17 7 9 1030.1 1030.2 0.0
25/03:00pm 12.4 9.8 6.2 66 3.1 WSW 9 15 5 8 1030.0 1030.0 0.0
25/02:30pm 12.8 9.5 4.8 58 3.9 NNW 11 19 6 10 1030.3 1030.4 0.0
25/02:00pm 13.2 10.4 5.1 58 3.9 WNW 9 19 5 10 1030.2 1030.3 0.0
25/01:30pm 11.9 7.5 4.9 62 3.4 WNW 17 20 9 11 1030.7 1030.7 0.0
25/01:00pm 12.1 7.5 5.7 65 3.1 WNW 19 24 10 13 1030.8 1030.8 0.0
25/12:30pm 11.6 7.9 6.1 69 2.7 NW 15 19 8 10 1031.0 1031.0 0.0
25/12:00pm 11.7 7.6 6.0 68 2.8 NW 17 20 9 11 1031.3 1031.4 0.0
25/11:30am 11.2 7.3 5.5 68 2.8 NNW 15 22 8 12 1031.6 1031.7 0.0
25/11:00am 10.7 7.8 6.5 75 2.1 NNW 11 15 6 8 1032.0 1032.1 0.0
25/10:30am 9.7 6.3 5.7 76 1.9 N 13 15 7 8 1032.1 1032.2 0.0
25/10:00am 9.5 6.1 5.7 77 1.8 NNE 13 17 7 9 1032.1 1032.2 0.0
25/09:30am 7.4 5.2 6.2 92 0.6 N 7 9 4 5 1032.3 1032.4 0.0
25/09:00am 6.6 5.6 5.6 93 0.5 CALM 0 0 0 0 1032.4 1032.5 0.0
25/08:30am 5.0 3.3 4.0 93 0.4 N 2 6 1 3 1032.5 1032.6 0.0
25/08:00am 2.8 0.3 1.8 93 0.4 N 4 6 2 3 1032.3 1032.4 0.0
25/07:30am 2.3 -0.6 1.3 93 0.4 NW 6 7 3 4 1032.1 1032.2 0.0
25/07:00am 2.8 0.7 1.8 93 0.4 NW 2 6 1 3 1031.9 1031.9 0.0
25/06:30am 1.8 -0.1 0.8 93 0.4 CALM 0 0 0 0 1031.9 1031.9 0.0
25/06:00am 2.0 0.2 1.0 93 0.4 CALM 0 0 0 0 1031.6 1031.7 0.0
25/05:30am 2.0 0.2 1.0 93 0.4 CALM 0 0 0 0 1031.5 1031.6 0.0
25/05:00am 1.6 -0.3 0.6 93 0.4 CALM 0 0 0 0 1031.2 1031.3 0.0
25/04:30am 1.3 -0.6 0.3 93 0.4 CALM 0 0 0 0 1031.2 1031.3 0.0
25/04:00am 1.8 -0.1 0.8 93 0.4 CALM 0 0 0 0 1031.2 1031.3 0.0
25/03:30am 2.1 0.3 0.9 92 0.5 CALM 0 0 0 0 1031.2 1031.3 0.0
25/03:00am 1.5 -1.7 -0.4 87 0.7 NNW 6 7 3 4 1031.9 1031.9 0.0
25/02:30am 2.9 -0.6 1.3 89 0.7 NW 9 11 5 6 1031.9 1031.9 0.0
25/02:00am 2.6 -1.0 0.3 85 0.9 WNW 9 9 5 5 1032.1 1032.2 0.0
25/01:30am 1.7 -1.4 0.1 89 0.6 W 6 9 3 5 1031.6 1031.7 0.0
25/01:00am 1.5 -1.9 -0.7 85 0.8 NE 7 9 4 5 1031.7 1031.8 0.0
25/12:30am 1.5 -0.6 -0.9 84 0.9 CALM 0 0 0 0 1031.9 1031.9 0.0
25/12:00am 1.2 -2.0 -0.4 89 0.6 NNW 6 7 3 4 1032.2 1032.3 0.0
 
Date/Time
EST
Temp
°C
App
Temp
°C
Dew
Point
Rel
Hum
%
Delta-T
°C
Wind Press
QNH
hPa
Press
MSL
hPa
Rain
since 9 am
mm
Dir
 
Spd
km/h
Gust
km/h
Spd
kts
Gust
kts
24/11:30pm 1.8 -0.2 0.0 88 0.7 CALM 0 0 0 0 1032.5 1032.6 0.0
24/11:00pm 2.4 0.5 0.8 89 0.6 CALM 0 0 0 0 1032.5 1032.6 0.0
24/10:30pm 1.7 -0.2 0.4 91 0.5 CALM 0 0 0 0 1032.5 1032.6 0.0
24/10:00pm 1.6 -0.3 0.4 92 0.5 CALM 0 0 0 0 1032.4 1032.5 0.0
24/09:30pm 2.0 0.1 0.5 90 0.6 CALM 0 0 0 0 1032.2 1032.3 0.0
24/09:00pm 2.1 -0.5 0.8 91 0.5 WSW 4 7 2 4 1032.1 1032.2 0.0
24/08:30pm 2.3 -0.3 1.1 92 0.5 W 4 7 2 4 1032.2 1032.3 0.0
24/08:00pm 3.5 1.9 2.3 92 0.5 CALM 0 4 0 2 1031.9 1031.9 0.0
24/07:30pm 2.3 -1.3 0.5 88 0.7 ESE 9 9 5 5 1031.7 1031.8 0.0
24/07:00pm 4.5 2.6 3.0 90 0.6 SE 2 7 1 4 1031.9 1031.9 0.0
24/06:30pm 5.3 2.0 2.7 83 1.1 SE 9 9 5 5 1031.7 1031.8 0.0
24/06:00pm 5.1 2.3 2.1 81 1.3 SE 6 9 3 5 1031.4 1031.5 0.0
24/05:30pm 7.1 3.9 3.0 75 1.8 S 9 9 5 5 1031.2 1031.3 0.0
24/05:00pm 8.5 5.5 3.9 73 2.1 S 9 11 5 6 1031.0 1031.0 0.0
24/04:30pm 10.6 7.3 4.5 66 2.9 S 11 13 6 7 1031.0 1031.0 0.0
24/04:00pm 12.2 8.7 3.4 55 4.1 S 11 13 6 7 1030.9 1030.9 0.0
24/03:30pm 12.9 9.9 4.1 55 4.2 SW 9 13 5 7 1031.0 1031.0 0.0
24/03:00pm 12.8 9.8 4.0 55 4.2 SW 9 11 5 6 1030.8 1030.8 0.0
24/02:30pm 13.4 10.1 2.6 48 5.0 S 9 13 5 7 1030.8 1030.8 0.0
24/02:00pm 14.0 11.1 2.6 46 5.3 S 7 13 4 7 1030.7 1030.7 0.0
24/01:30pm 13.9 10.2 -4.3 28 7.3 SE 6 11 3 6 1030.9 1030.9 0.0
24/01:00pm 13.6 10.1 -2.8 32 6.7 WSW 6 11 3 6 1031.4 1031.5 0.0
24/12:30pm 13.4 10.1 0.4 41 5.8 N 7 13 4 7 1031.4 1031.5 0.0

Other Formats:

Comma delimited format used in spreadsheet applications
http://www.bom.gov.au/fwo/IDN60801/IDN60801.95726.axf

JavaScript Object Notation format (JSON) in row-major order
http://www.bom.gov.au/fwo/IDN60801/IDN60801.95726.json